Time;durP1;ratioP1;P1;durP2;ratioP2;P2;SDS_P1;SDS_P2;PMS_P1;PMS_P2;Temp;Humidity;BMP_temperature;BMP_pressure;BME280_temperature;BME280_humidity;BME280_pressure;Samples;Min_cycle;Max_cycle;Signal;HPM_P1;HPM_P2
2023/12/10 00:01:57;;;;;;;7.30;5.67;;;;;;;;;;5043805;28;20515;-80
2023/12/10 00:04:25;;;;;;;7.70;4.97;;;;;;;;;;5043705;28;20449;-80
2023/12/10 00:06:53;;;;;;;7.57;4.87;;;;;;;;;;5041431;28;20885;-80
2023/12/10 00:09:20;;;;;;;9.93;6.37;;;;;;;;;;5040766;28;20457;-80
2023/12/10 00:11:48;;;;;;;9.13;6.40;;;;;;;;;;5040289;28;20469;-79
2023/12/10 00:14:16;;;;;;;11.00;7.53;;;;;;;;;;5039759;28;20464;-79
2023/12/10 00:16:44;;;;;;;9.50;7.27;;;;;;;;;;5041189;28;20550;-78
2023/12/10 00:19:13;;;;;;;11.13;6.27;;;;;;;;;;5042928;28;20542;-80
2023/12/10 00:21:41;;;;;;;9.70;6.77;;;;;;;;;;5043793;28;20466;-79
2023/12/10 00:24:09;;;;;;;10.40;6.17;;;;;;;;;;5042554;28;20501;-79
2023/12/10 00:26:37;;;;;;;9.87;6.93;;;;;;;;;;5041813;28;20544;-78
2023/12/10 00:29:05;;;;;;;11.27;8.20;;;;;;;;;;5043102;28;20513;-80
2023/12/10 00:31:33;;;;;;;11.80;8.00;;;;;;;;;;5044279;28;20470;-78
2023/12/10 00:34:00;;;;;;;11.63;8.03;;;;;;;;;;5043901;28;20465;-78
2023/12/10 00:36:30;;;;;;;14.37;9.10;;;;;;;;;;5043720;28;20465;-79
2023/12/10 00:38:59;;;;;;;13.10;9.87;;;;;;;;;;5045727;28;20492;-80
2023/12/10 00:41:27;;;;;;;12.10;8.40;;;;;;;;;;5050694;28;20541;-80
2023/12/10 00:43:55;;;;;;;11.40;9.07;;;;;;;;;;5049797;28;20457;-80
2023/12/10 00:46:23;;;;;;;11.77;9.13;;;;;;;;;;5050838;28;20459;-79
2023/12/10 00:48:50;;;;;;;14.50;9.40;;;;;;;;;;5051177;28;20737;-79
2023/12/10 00:51:21;;;;;;;12.67;9.10;;;;;;;;;;5048150;28;20527;-79
2023/12/10 00:53:51;;;;;;;18.33;9.10;;;;;;;;;;5050223;28;20461;-79
2023/12/10 00:56:19;;;;;;;10.77;8.30;;;;;;;;;;5049674;28;20537;-81
2023/12/10 00:58:46;;;;;;;12.93;9.03;;;;;;;;;;5046512;28;20490;-80
2023/12/10 01:01:14;;;;;;;10.80;8.43;;;;;;;;;;5047793;28;20758;-80
2023/12/10 01:03:42;;;;;;;11.07;7.87;;;;;;;;;;5047444;28;20891;-79
2023/12/10 01:06:10;;;;;;;15.10;8.30;;;;;;;;;;5046560;28;20471;-80
2023/12/10 01:08:38;;;;;;;13.97;9.40;;;;;;;;;;5046423;28;20460;-79
2023/12/10 01:11:08;;;;;;;13.10;7.80;;;;;;;;;;5047440;28;20445;-78
2023/12/10 01:13:36;;;;;;;11.33;8.30;;;;;;;;;;5046897;28;20583;-80
2023/12/10 01:16:04;;;;;;;9.83;7.00;;;;;;;;;;5044748;28;20459;-79
2023/12/10 01:18:33;;;;;;;9.60;6.60;;;;;;;;;;5046293;28;20500;-80
2023/12/10 01:21:01;;;;;;;9.30;6.20;;;;;;;;;;5045999;28;20445;-78
2023/12/10 01:23:28;;;;;;;10.63;6.40;;;;;;;;;;5045552;28;20467;-80
2023/12/10 01:25:56;;;;;;;8.73;7.00;;;;;;;;;;5046674;28;20495;-80
2023/12/10 01:28:25;;;;;;;8.83;6.10;;;;;;;;;;5046463;28;20449;-80
2023/12/10 01:30:53;;;;;;;6.93;5.27;;;;;;;;;;5046713;28;20469;-79
2023/12/10 01:33:21;;;;;;;8.10;5.87;;;;;;;;;;5046595;28;20479;-79
2023/12/10 01:35:48;;;;;;;9.63;5.97;;;;;;;;;;5045012;28;20507;-80
2023/12/10 01:38:16;;;;;;;7.67;5.60;;;;;;;;;;5044158;28;20487;-79
2023/12/10 01:40:44;;;;;;;9.20;6.03;;;;;;;;;;5048422;28;20460;-81
2023/12/10 01:43:12;;;;;;;10.17;5.90;;;;;;;;;;5048774;28;20675;-79
2023/12/10 01:45:42;;;;;;;8.57;5.80;;;;;;;;;;5050032;28;20457;-79
2023/12/10 01:48:10;;;;;;;8.17;6.00;;;;;;;;;;5049820;28;20469;-79
2023/12/10 01:50:38;;;;;;;7.53;5.40;;;;;;;;;;5049447;28;20465;-79
2023/12/10 01:53:06;;;;;;;8.47;5.20;;;;;;;;;;5049844;28;20472;-79
2023/12/10 01:55:34;;;;;;;7.63;5.23;;;;;;;;;;5048154;28;20462;-79
2023/12/10 01:58:04;;;;;;;7.30;4.73;;;;;;;;;;5048297;28;20467;-79
2023/12/10 02:00:32;;;;;;;8.33;5.10;;;;;;;;;;5048981;28;20538;-79
2023/12/10 02:03:02;;;;;;;9.33;4.70;;;;;;;;;;5049967;28;20449;-80
2023/12/10 02:05:31;;;;;;;6.70;4.50;;;;;;;;;;5048152;28;20483;-79
2023/12/10 02:07:58;;;;;;;7.60;4.50;;;;;;;;;;5047838;28;20457;-80
2023/12/10 02:10:26;;;;;;;6.53;3.90;;;;;;;;;;5047936;28;20459;-80
2023/12/10 02:12:54;;;;;;;6.87;4.77;;;;;;;;;;5047647;28;20465;-79
2023/12/10 02:15:24;;;;;;;5.50;3.77;;;;;;;;;;5047116;28;20452;-79
2023/12/10 02:17:52;;;;;;;6.43;4.43;;;;;;;;;;5048235;28;20471;-80
2023/12/10 02:20:21;;;;;;;7.67;4.00;;;;;;;;;;5047926;28;20555;-80
2023/12/10 02:22:53;;;;;;;7.90;3.93;;;;;;;;;;5048402;28;20455;-80
2023/12/10 02:25:23;;;;;;;7.40;4.50;;;;;;;;;;5048328;28;20456;-79
2023/12/10 02:27:52;;;;;;;6.07;4.17;;;;;;;;;;5047752;28;20448;-80
2023/12/10 02:30:20;;;;;;;9.00;3.90;;;;;;;;;;5046212;28;20465;-80
2023/12/10 02:32:48;;;;;;;6.77;4.30;;;;;;;;;;5046243;28;20524;-80
2023/12/10 02:35:16;;;;;;;8.43;3.83;;;;;;;;;;5045763;28;20710;-80
2023/12/10 02:37:45;;;;;;;8.50;4.00;;;;;;;;;;5046416;28;20485;-78
2023/12/10 02:40:18;;;;;;;6.17;4.20;;;;;;;;;;5045557;28;20488;-78
2023/12/10 02:42:46;;;;;;;6.63;3.97;;;;;;;;;;5045469;28;20473;-81
2023/12/10 02:45:18;;;;;;;11.60;4.23;;;;;;;;;;5046850;28;20449;-79
2023/12/10 02:47:46;;;;;;;9.93;4.37;;;;;;;;;;5046044;28;20675;-80
2023/12/10 02:50:18;;;;;;;9.10;4.37;;;;;;;;;;5045676;28;20472;-79
2023/12/10 02:52:46;;;;;;;12.53;4.57;;;;;;;;;;5045076;28;20493;-78
2023/12/10 02:55:13;;;;;;;11.27;5.00;;;;;;;;;;5044374;28;20775;-81
2023/12/10 02:57:41;;;;;;;12.97;5.30;;;;;;;;;;5046140;28;20470;-78
2023/12/10 03:00:10;;;;;;;13.23;5.30;;;;;;;;;;5046134;28;20490;-81
2023/12/10 03:02:40;;;;;;;11.60;5.83;;;;;;;;;;5046055;28;20476;-80
2023/12/10 03:05:08;;;;;;;12.37;6.17;;;;;;;;;;5046012;28;20459;-80
2023/12/10 03:07:36;;;;;;;8.63;4.80;;;;;;;;;;5046234;28;20461;-80
2023/12/10 03:10:08;;;;;;;16.03;5.20;;;;;;;;;;5044715;28;20507;-80
2023/12/10 03:12:35;;;;;;;15.13;5.20;;;;;;;;;;5044176;28;20450;-79
2023/12/10 03:15:03;;;;;;;17.73;5.27;;;;;;;;;;5043148;28;20752;-79
2023/12/10 03:17:36;;;;;;;18.07;5.70;;;;;;;;;;5045898;28;20464;-77
2023/12/10 03:20:12;;;;;;;11.53;4.90;;;;;;;;;;5046184;28;20499;-78
2023/12/10 03:22:42;;;;;;;20.43;5.23;;;;;;;;;;5047162;28;20538;-78
2023/12/10 03:25:11;;;;;;;13.37;5.50;;;;;;;;;;5046707;28;20539;-78
2023/12/10 03:27:40;;;;;;;29.43;4.80;;;;;;;;;;5050821;28;20440;-78
2023/12/10 03:30:14;;;;;;;13.50;5.00;;;;;;;;;;5051709;28;20451;-79
2023/12/10 03:32:49;;;;;;;14.27;4.90;;;;;;;;;;5050752;28;20465;-80
2023/12/10 03:35:19;;;;;;;13.43;4.70;;;;;;;;;;5046265;28;20451;-77
2023/12/10 03:37:46;;;;;;;8.70;4.20;;;;;;;;;;5047180;28;20458;-78
2023/12/10 03:40:21;;;;;;;11.63;4.33;;;;;;;;;;5046988;28;20558;-79
2023/12/10 03:42:50;;;;;;;12.73;4.40;;;;;;;;;;5046620;28;20460;-78
2023/12/10 03:45:25;;;;;;;15.80;5.03;;;;;;;;;;5047747;28;20478;-80
2023/12/10 03:47:54;;;;;;;16.83;4.70;;;;;;;;;;5047098;28;20592;-80
2023/12/10 03:50:23;;;;;;;15.00;4.90;;;;;;;;;;5048649;28;20488;-77
2023/12/10 03:52:51;;;;;;;16.10;4.60;;;;;;;;;;5051525;28;20480;-79
2023/12/10 03:55:19;;;;;;;19.90;4.10;;;;;;;;;;5050342;28;20532;-78
2023/12/10 03:57:48;;;;;;;15.40;4.23;;;;;;;;;;5049580;28;20524;-78
2023/12/10 04:00:17;;;;;;;13.80;3.93;;;;;;;;;;5050806;28;20516;-80
2023/12/10 04:02:48;;;;;;;11.20;3.50;;;;;;;;;;5049192;28;20564;-79
2023/12/10 04:05:20;;;;;;;13.50;3.27;;;;;;;;;;5048278;28;20471;-78
2023/12/10 04:07:50;;;;;;;15.97;5.13;;;;;;;;;;5047780;28;20507;-79
2023/12/10 04:10:17;;;;;;;20.43;4.33;;;;;;;;;;5047179;28;20465;-78
2023/12/10 04:12:45;;;;;;;10.30;3.93;;;;;;;;;;5046361;28;20459;-78
2023/12/10 04:15:13;;;;;;;18.27;3.73;;;;;;;;;;5048000;28;20450;-78
2023/12/10 04:17:42;;;;;;;17.57;4.10;;;;;;;;;;5048056;28;20510;-78
2023/12/10 04:20:10;;;;;;;18.43;4.30;;;;;;;;;;5047379;28;20490;-79
2023/12/10 04:22:38;;;;;;;15.87;3.53;;;;;;;;;;5048697;28;20456;-79
2023/12/10 04:25:09;;;;;;;19.77;4.60;;;;;;;;;;5048656;28;20458;-79
2023/12/10 04:27:37;;;;;;;25.00;4.87;;;;;;;;;;5048470;28;20448;-77
2023/12/10 04:30:08;;;;;;;25.87;3.83;;;;;;;;;;5048027;28;20845;-78
2023/12/10 04:32:36;;;;;;;17.90;3.47;;;;;;;;;;5047424;28;20504;-79
2023/12/10 04:35:04;;;;;;;18.83;4.07;;;;;;;;;;5048922;28;20567;-77
2023/12/10 04:37:32;;;;;;;20.70;4.83;;;;;;;;;;5048377;28;20460;-79
2023/12/10 04:40:00;;;;;;;19.37;4.10;;;;;;;;;;5048661;28;20492;-79
2023/12/10 04:42:29;;;;;;;27.27;6.60;;;;;;;;;;5049348;28;20452;-78
2023/12/10 04:44:57;;;;;;;21.83;3.80;;;;;;;;;;5049101;28;20448;-78
2023/12/10 04:47:26;;;;;;;19.43;4.27;;;;;;;;;;5050704;28;20535;-79
2023/12/10 04:49:54;;;;;;;15.57;3.53;;;;;;;;;;5049235;28;20444;-79
2023/12/10 04:52:22;;;;;;;25.60;4.90;;;;;;;;;;5048386;28;20496;-77
2023/12/10 04:54:51;;;;;;;20.90;3.93;;;;;;;;;;5047242;28;20461;-79
2023/12/10 04:57:18;;;;;;;22.60;4.97;;;;;;;;;;5047410;28;20742;-77
2023/12/10 04:59:48;;;;;;;31.63;4.80;;;;;;;;;;5048649;28;20489;-77
2023/12/10 05:02:15;;;;;;;17.90;4.93;;;;;;;;;;5048308;28;20479;-77
2023/12/10 05:05:03;;;;;;;16.57;4.23;;;;;;;;;;5047002;28;20537;-79
2023/12/10 05:07:31;;;;;;;26.63;4.50;;;;;;;;;;5046707;28;20493;-78
2023/12/10 05:09:59;;;;;;;27.53;4.90;;;;;;;;;;5047211;28;20792;-79
2023/12/10 05:12:27;;;;;;;24.47;4.50;;;;;;;;;;5048254;28;20452;-80
2023/12/10 05:14:56;;;;;;;21.50;7.33;;;;;;;;;;5048757;28;20473;-79
2023/12/10 05:17:24;;;;;;;21.60;5.20;;;;;;;;;;5049220;28;20452;-79
2023/12/10 05:19:52;;;;;;;25.83;5.17;;;;;;;;;;5050575;28;20492;-80
2023/12/10 05:22:19;;;;;;;15.30;5.27;;;;;;;;;;5048757;28;20463;-79
2023/12/10 05:24:47;;;;;;;39.00;4.30;;;;;;;;;;5050525;28;20444;-79
2023/12/10 05:27:15;;;;;;;28.57;5.03;;;;;;;;;;5052285;28;20450;-80
2023/12/10 05:29:42;;;;;;;25.30;5.40;;;;;;;;;;5051424;28;20492;-80
2023/12/10 05:32:12;;;;;;;17.63;3.10;;;;;;;;;;5051016;28;20462;-78
2023/12/10 05:34:40;;;;;;;22.60;4.57;;;;;;;;;;5051464;28;20495;-78
2023/12/10 05:37:07;;;;;;;23.43;3.80;;;;;;;;;;5048634;28;20539;-78
2023/12/10 05:39:36;;;;;;;17.40;3.93;;;;;;;;;;5047619;28;20454;-79
2023/12/10 05:42:03;;;;;;;25.83;5.40;;;;;;;;;;5049536;28;20544;-79
2023/12/10 05:44:31;;;;;;;16.37;4.30;;;;;;;;;;5050033;28;20474;-79
2023/12/10 05:46:59;;;;;;;22.73;4.27;;;;;;;;;;5051337;28;20844;-79
2023/12/10 05:49:28;;;;;;;24.00;4.17;;;;;;;;;;5050188;28;20472;-78
2023/12/10 05:51:56;;;;;;;17.90;4.20;;;;;;;;;;5051513;28;20500;-77
2023/12/10 05:54:26;;;;;;;22.20;3.70;;;;;;;;;;5051539;28;20505;-77
2023/12/10 05:56:54;;;;;;;23.43;3.83;;;;;;;;;;5049815;28;20934;-78
2023/12/10 05:59:22;;;;;;;24.93;5.70;;;;;;;;;;5049919;28;20463;-78
2023/12/10 06:01:50;;;;;;;18.33;3.33;;;;;;;;;;5050049;28;20587;-80
2023/12/10 06:04:18;;;;;;;23.20;4.97;;;;;;;;;;5049033;28;20492;-79
2023/12/10 06:06:47;;;;;;;24.63;4.43;;;;;;;;;;5049033;28;20458;-80
2023/12/10 06:09:15;;;;;;;15.00;3.80;;;;;;;;;;5049999;28;20523;-80
2023/12/10 06:11:43;;;;;;;20.67;3.73;;;;;;;;;;5048854;28;20473;-79
2023/12/10 06:14:10;;;;;;;19.60;3.70;;;;;;;;;;5048081;28;20472;-79
2023/12/10 06:16:38;;;;;;;19.20;3.90;;;;;;;;;;5045968;28;20460;-78
2023/12/10 06:19:06;;;;;;;17.17;4.50;;;;;;;;;;5046907;28;20453;-77
2023/12/10 06:21:33;;;;;;;15.30;3.30;;;;;;;;;;5046727;28;20535;-79
2023/12/10 06:24:04;;;;;;;20.73;4.20;;;;;;;;;;5046095;28;20444;-78
2023/12/10 06:26:35;;;;;;;26.53;4.37;;;;;;;;;;5046781;28;20449;-79
2023/12/10 06:29:03;;;;;;;17.60;3.73;;;;;;;;;;5045716;28;20464;-78
2023/12/10 06:31:35;;;;;;;17.77;3.43;;;;;;;;;;5045743;28;20467;-77
2023/12/10 06:34:03;;;;;;;21.50;3.70;;;;;;;;;;5047232;28;20524;-77
2023/12/10 06:36:30;;;;;;;16.43;3.70;;;;;;;;;;5047185;28;20451;-78
2023/12/10 06:39:01;;;;;;;18.43;4.07;;;;;;;;;;5046155;28;20432;-77
2023/12/10 06:41:31;;;;;;;17.53;3.47;;;;;;;;;;5045205;28;20788;-77
2023/12/10 06:43:59;;;;;;;11.30;4.00;;;;;;;;;;5045734;28;20462;-78
2023/12/10 06:46:30;;;;;;;17.30;4.03;;;;;;;;;;5046069;28;20689;-79
2023/12/10 06:48:58;;;;;;;19.67;4.33;;;;;;;;;;5046670;28;20592;-78
2023/12/10 06:51:27;;;;;;;24.23;5.73;;;;;;;;;;5047936;28;20485;-79
2023/12/10 06:53:57;;;;;;;15.00;3.43;;;;;;;;;;5045892;28;20734;-79
2023/12/10 06:56:25;;;;;;;11.70;3.87;;;;;;;;;;5046245;28;20875;-78
2023/12/10 06:58:55;;;;;;;13.43;3.90;;;;;;;;;;5048299;28;20591;-79
2023/12/10 07:01:23;;;;;;;16.13;3.47;;;;;;;;;;5049139;28;20490;-79
2023/12/10 07:03:51;;;;;;;17.70;3.20;;;;;;;;;;5050564;28;20557;-79
2023/12/10 07:06:19;;;;;;;9.50;3.53;;;;;;;;;;5049878;28;21044;-79
2023/12/10 07:08:47;;;;;;;19.27;3.40;;;;;;;;;;5046415;28;20468;-79
2023/12/10 07:11:15;;;;;;;19.73;3.47;;;;;;;;;;5044759;28;20457;-80
2023/12/10 07:13:42;;;;;;;21.43;3.50;;;;;;;;;;5044639;28;20453;-79
2023/12/10 07:16:12;;;;;;;11.73;3.07;;;;;;;;;;5046972;28;21016;-79
2023/12/10 07:18:40;;;;;;;9.63;2.17;;;;;;;;;;5046238;28;20450;-78
2023/12/10 07:21:08;;;;;;;12.87;3.33;;;;;;;;;;5046727;28;20803;-78
2023/12/10 07:23:37;;;;;;;10.03;3.07;;;;;;;;;;5045750;28;20895;-77
2023/12/10 07:26:04;;;;;;;11.57;3.03;;;;;;;;;;5047132;28;20498;-78
2023/12/10 07:28:33;;;;;;;14.70;3.07;;;;;;;;;;5047704;28;20487;-78
2023/12/10 07:31:01;;;;;;;9.40;2.57;;;;;;;;;;5048061;28;20440;-79
2023/12/10 07:33:30;;;;;;;9.57;2.50;;;;;;;;;;5048509;28;20465;-80
2023/12/10 07:35:57;;;;;;;10.23;3.20;;;;;;;;;;5049564;28;20467;-80
2023/12/10 07:38:25;;;;;;;16.23;2.57;;;;;;;;;;5048706;28;20542;-78
2023/12/10 07:40:53;;;;;;;9.93;2.60;;;;;;;;;;5046728;28;20521;-80
2023/12/10 07:43:21;;;;;;;8.93;2.33;;;;;;;;;;5044192;28;20466;-80
2023/12/10 07:45:49;;;;;;;13.10;3.50;;;;;;;;;;5041976;28;20527;-80
2023/12/10 07:48:16;;;;;;;8.17;2.60;;;;;;;;;;5041582;28;20735;-79
2023/12/10 07:50:46;;;;;;;10.50;1.97;;;;;;;;;;5042236;28;20453;-79
2023/12/10 07:53:14;;;;;;;17.17;3.10;;;;;;;;;;5040468;28;20462;-78
2023/12/10 07:55:43;;;;;;;6.47;2.33;;;;;;;;;;5041077;28;20465;-78
2023/12/10 07:58:10;;;;;;;10.60;2.23;;;;;;;;;;5041094;28;20448;-78
2023/12/10 08:00:39;;;;;;;12.37;3.13;;;;;;;;;;5042952;28;20493;-79
2023/12/10 08:03:07;;;;;;;9.70;2.97;;;;;;;;;;5044363;28;20914;-80
2023/12/10 08:05:34;;;;;;;6.50;2.33;;;;;;;;;;5043798;28;20454;-80
2023/12/10 08:08:04;;;;;;;10.50;2.17;;;;;;;;;;5042295;28;20466;-80
2023/12/10 08:10:32;;;;;;;14.23;3.37;;;;;;;;;;5043830;28;20590;-78
2023/12/10 08:13:00;;;;;;;13.43;2.80;;;;;;;;;;5044013;28;20456;-78
2023/12/10 08:15:28;;;;;;;9.57;2.70;;;;;;;;;;5047682;28;20463;-78
2023/12/10 08:17:56;;;;;;;7.83;2.27;;;;;;;;;;5044397;28;20453;-78
2023/12/10 08:20:23;;;;;;;15.93;3.33;;;;;;;;;;5043169;28;20474;-79
2023/12/10 08:22:51;;;;;;;8.67;2.67;;;;;;;;;;5043207;28;20457;-79
2023/12/10 08:25:20;;;;;;;9.13;3.00;;;;;;;;;;5045067;28;20546;-79
2023/12/10 08:27:48;;;;;;;10.30;2.10;;;;;;;;;;5045519;28;20453;-79
2023/12/10 08:30:19;;;;;;;14.60;5.63;;;;;;;;;;5044658;28;20456;-79
2023/12/10 08:32:46;;;;;;;11.37;3.60;;;;;;;;;;5044795;28;20459;-78
2023/12/10 08:35:14;;;;;;;8.57;2.90;;;;;;;;;;5045287;28;20711;-80
2023/12/10 08:37:42;;;;;;;8.80;1.83;;;;;;;;;;5045527;28;20442;-79
2023/12/10 08:40:11;;;;;;;10.87;5.47;;;;;;;;;;5046714;28;20478;-79
2023/12/10 08:42:40;;;;;;;9.20;3.40;;;;;;;;;;5045904;28;20487;-81
2023/12/10 08:45:11;;;;;;;8.43;2.33;;;;;;;;;;5043420;28;20455;-78
2023/12/10 08:47:39;;;;;;;17.83;2.60;;;;;;;;;;5043818;28;20459;-79
2023/12/10 08:50:10;;;;;;;11.27;3.33;;;;;;;;;;5043575;28;20466;-79
2023/12/10 08:52:37;;;;;;;8.80;3.60;;;;;;;;;;5042467;28;20508;-80
2023/12/10 08:55:06;;;;;;;9.93;2.10;;;;;;;;;;5044462;28;20441;-79
2023/12/10 08:57:33;;;;;;;6.60;2.40;;;;;;;;;;5044181;28;20464;-79
2023/12/10 09:00:09;;;;;;;5.67;1.80;;;;;;;;;;5047334;28;20844;-78
2023/12/10 09:02:37;;;;;;;8.10;2.20;;;;;;;;;;5045421;28;20494;-78
2023/12/10 09:05:13;;;;;;;4.40;1.90;;;;;;;;;;5044101;28;20447;-77
2023/12/10 09:07:45;;;;;;;8.00;2.90;;;;;;;;;;5021775;28;20561;-78
2023/12/10 09:10:16;;;;;;;4.90;1.67;;;;;;;;;;5026113;28;20724;-79
2023/12/10 09:12:47;;;;;;;4.10;1.67;;;;;;;;;;5027796;28;20452;-79
2023/12/10 09:15:17;;;;;;;7.27;2.23;;;;;;;;;;5027620;28;20449;-78
2023/12/10 09:17:45;;;;;;;8.97;1.87;;;;;;;;;;5026061;28;20465;-79
2023/12/10 09:20:16;;;;;;;7.03;2.10;;;;;;;;;;5025528;28;20547;-78
2023/12/10 09:22:44;;;;;;;5.53;2.60;;;;;;;;;;5020662;28;20494;-78
2023/12/10 09:25:11;;;;;;;6.87;1.80;;;;;;;;;;5023412;28;20458;-78
2023/12/10 09:27:39;;;;;;;12.63;2.53;;;;;;;;;;5021840;28;20471;-78
2023/12/10 09:30:10;;;;;;;5.37;1.50;;;;;;;;;;5023113;28;20461;-78
2023/12/10 09:32:42;;;;;;;8.23;1.83;;;;;;;;;;5027286;28;20523;-78
2023/12/10 09:35:10;;;;;;;5.17;1.40;;;;;;;;;;5029429;28;20457;-79
2023/12/10 09:37:40;;;;;;;3.17;1.27;;;;;;;;;;5042305;28;20754;-78
2023/12/10 09:40:10;;;;;;;4.67;1.70;;;;;;;;;;5046430;28;20448;-79
2023/12/10 09:42:39;;;;;;;5.03;1.43;;;;;;;;;;5047838;28;20497;-79
2023/12/10 09:45:11;;;;;;;3.70;1.20;;;;;;;;;;5050216;28;20508;-79
2023/12/10 09:47:42;;;;;;;9.73;4.50;;;;;;;;;;5049876;28;20520;-80
2023/12/10 09:50:11;;;;;;;3.53;1.40;;;;;;;;;;5049696;28;20530;-79
2023/12/10 09:52:39;;;;;;;9.93;1.90;;;;;;;;;;5048565;28;20488;-78
2023/12/10 09:55:08;;;;;;;2.50;1.03;;;;;;;;;;5050417;28;20457;-79
2023/12/10 09:57:36;;;;;;;5.43;1.27;;;;;;;;;;5049835;28;20469;-78
2023/12/10 10:00:08;;;;;;;3.50;1.30;;;;;;;;;;5047984;28;20453;-79
2023/12/10 10:02:38;;;;;;;6.23;1.70;;;;;;;;;;5047889;28;20475;-78
2023/12/10 10:05:09;;;;;;;3.57;1.50;;;;;;;;;;5047858;28;20487;-78
2023/12/10 10:07:37;;;;;;;2.90;1.40;;;;;;;;;;5048793;28;20457;-79
2023/12/10 10:10:11;;;;;;;6.93;1.70;;;;;;;;;;5048396;28;20459;-79
2023/12/10 10:13:03;;;;;;;5.57;1.50;;;;;;;;;;5046743;28;20463;-77
2023/12/10 10:15:32;;;;;;;3.27;1.47;;;;;;;;;;5046551;28;20451;-77
2023/12/10 10:18:00;;;;;;;4.47;1.60;;;;;;;;;;5045983;28;20453;-79
2023/12/10 10:20:30;;;;;;;4.37;1.53;;;;;;;;;;5047992;28;20448;-78
2023/12/10 10:22:58;;;;;;;8.83;1.80;;;;;;;;;;5049735;28;20510;-78
2023/12/10 10:25:27;;;;;;;8.77;1.43;;;;;;;;;;5049103;28;20465;-78
2023/12/10 10:27:56;;;;;;;3.87;1.33;;;;;;;;;;5048884;28;20465;-79
2023/12/10 10:30:24;;;;;;;3.73;1.60;;;;;;;;;;5049424;28;20472;-77
2023/12/10 10:32:52;;;;;;;2.77;0.93;;;;;;;;;;5046755;28;20679;-79
2023/12/10 10:35:20;;;;;;;4.57;1.30;;;;;;;;;;5047920;28;20461;-78
2023/12/10 10:37:49;;;;;;;6.33;1.20;;;;;;;;;;5049382;28;20453;-79
2023/12/10 10:40:17;;;;;;;7.83;2.63;;;;;;;;;;5050011;28;20491;-78
2023/12/10 10:42:45;;;;;;;8.00;5.17;;;;;;;;;;5047177;28;20506;-78
2023/12/10 10:45:16;;;;;;;2.50;1.10;;;;;;;;;;5047744;28;20451;-78
2023/12/10 10:47:44;;;;;;;3.43;1.80;;;;;;;;;;5048520;28;20460;-78
2023/12/10 10:52:49;;;;;;;5.90;2.37;;;;;;;;;;5055155;23;20469;-79
2023/12/10 10:55:18;;;;;;;2.53;0.90;;;;;;;;;;5025000;28;20523;-79
2023/12/10 10:57:46;;;;;;;3.03;1.53;;;;;;;;;;5029267;28;20488;-79
2023/12/10 11:00:32;;;;;;;3.97;1.50;;;;;;;;;;5028724;28;20463;-78
2023/12/10 11:03:03;;;;;;;7.23;2.70;;;;;;;;;;5030359;28;20554;-77
2023/12/10 11:05:33;;;;;;;6.37;2.27;;;;;;;;;;5033746;28;20438;-78
2023/12/10 11:08:03;;;;;;;7.37;3.60;;;;;;;;;;5033269;28;20457;-78
2023/12/10 11:10:32;;;;;;;7.90;3.57;;;;;;;;;;5029682;28;20462;-78
2023/12/10 11:13:01;;;;;;;4.40;2.07;;;;;;;;;;5028017;28;20452;-79
2023/12/10 11:15:29;;;;;;;3.43;1.40;;;;;;;;;;5030319;28;20497;-78
2023/12/10 11:18:05;;;;;;;3.40;0.90;;;;;;;;;;5029006;28;20445;-79
2023/12/10 11:20:38;;;;;;;4.70;1.63;;;;;;;;;;5026526;28;20456;-79
2023/12/10 11:23:08;;;;;;;4.63;1.27;;;;;;;;;;5024595;28;20769;-79
2023/12/10 11:25:37;;;;;;;3.40;1.23;;;;;;;;;;5022816;28;20525;-78
2023/12/10 11:28:10;;;;;;;3.83;0.93;;;;;;;;;;5023934;28;20463;-78
2023/12/10 11:30:38;;;;;;;3.00;1.30;;;;;;;;;;5024775;28;20463;-78
2023/12/10 11:33:08;;;;;;;3.50;1.30;;;;;;;;;;5026790;28;20911;-79
2023/12/10 11:35:36;;;;;;;3.50;1.07;;;;;;;;;;5027141;28;20449;-78
2023/12/10 11:38:05;;;;;;;3.27;1.20;;;;;;;;;;5028079;28;20685;-79
2023/12/10 11:40:34;;;;;;;3.43;1.40;;;;;;;;;;5028138;28;20492;-78
2023/12/10 11:43:06;;;;;;;2.57;1.10;;;;;;;;;;5025818;28;20517;-78
2023/12/10 11:45:34;;;;;;;5.67;1.63;;;;;;;;;;5028858;28;20521;-77
2023/12/10 11:48:04;;;;;;;3.67;1.60;;;;;;;;;;5027856;28;20524;-78
2023/12/10 11:50:32;;;;;;;5.27;0.90;;;;;;;;;;5028227;28;20462;-79
2023/12/10 11:53:00;;;;;;;3.17;1.53;;;;;;;;;;5028000;28;20479;-80
2023/12/10 11:55:29;;;;;;;4.27;1.23;;;;;;;;;;5027899;28;20497;-78
2023/12/10 11:57:59;;;;;;;3.13;1.00;;;;;;;;;;5029744;28;20473;-79
2023/12/10 12:00:30;;;;;;;2.20;0.97;;;;;;;;;;5028935;28;20458;-79
2023/12/10 12:02:58;;;;;;;3.20;1.10;;;;;;;;;;5026992;28;20681;-79
2023/12/10 12:05:26;;;;;;;2.70;1.20;;;;;;;;;;5026207;28;20456;-77
2023/12/10 12:07:57;;;;;;;4.27;2.17;;;;;;;;;;5026064;28;20461;-78
2023/12/10 12:10:25;;;;;;;3.80;1.30;;;;;;;;;;5028311;28;20517;-78
2023/12/10 12:12:53;;;;;;;4.00;2.03;;;;;;;;;;5027083;28;20479;-79
2023/12/10 12:15:24;;;;;;;9.53;2.40;;;;;;;;;;5025561;28;20457;-79
2023/12/10 12:17:51;;;;;;;4.10;1.63;;;;;;;;;;5026128;28;20457;-79
2023/12/10 12:20:21;;;;;;;5.80;2.27;;;;;;;;;;5025678;28;20463;-79
2023/12/10 12:22:50;;;;;;;5.93;2.60;;;;;;;;;;5024914;28;20481;-78
2023/12/10 12:25:17;;;;;;;7.00;1.80;;;;;;;;;;5024519;28;20453;-78
2023/12/10 12:27:45;;;;;;;8.40;2.07;;;;;;;;;;5022488;28;20468;-78
2023/12/10 12:30:16;;;;;;;4.07;2.40;;;;;;;;;;5024346;28;20533;-78
2023/12/10 12:32:46;;;;;;;8.43;3.10;;;;;;;;;;5023182;28;20438;-77
2023/12/10 12:35:17;;;;;;;8.63;3.77;;;;;;;;;;5027872;28;20565;-78
2023/12/10 12:37:47;;;;;;;6.80;3.03;;;;;;;;;;5025914;28;20464;-78
2023/12/10 12:40:20;;;;;;;10.60;2.40;;;;;;;;;;5027618;28;20499;-77
2023/12/10 12:42:48;;;;;;;4.93;1.67;;;;;;;;;;5025785;28;20552;-78
2023/12/10 12:45:18;;;;;;;8.23;3.13;;;;;;;;;;5025350;28;20530;-78
2023/12/10 12:47:48;;;;;;;13.57;3.00;;;;;;;;;;5025755;28;20453;-79
2023/12/10 12:50:19;;;;;;;3.67;1.87;;;;;;;;;;5026841;28;20673;-79
2023/12/10 12:52:47;;;;;;;4.10;1.80;;;;;;;;;;5026109;28;20721;-79
2023/12/10 12:55:16;;;;;;;4.23;1.70;;;;;;;;;;5024250;28;20546;-79
2023/12/10 12:57:44;;;;;;;6.90;1.80;;;;;;;;;;5023973;28;20460;-80
2023/12/10 13:00:17;;;;;;;5.37;1.80;;;;;;;;;;5024569;28;20472;-79
2023/12/10 13:02:45;;;;;;;6.93;1.57;;;;;;;;;;5027819;28;20552;-80
2023/12/10 13:05:19;;;;;;;5.10;1.80;;;;;;;;;;5026909;28;20453;-78
2023/12/10 13:07:46;;;;;;;2.87;0.97;;;;;;;;;;5024163;28;20488;-78
2023/12/10 13:10:17;;;;;;;3.30;1.00;;;;;;;;;;5023846;28;20468;-78
2023/12/10 13:12:45;;;;;;;3.33;1.00;;;;;;;;;;5025256;28;20748;-79
2023/12/10 13:15:12;;;;;;;3.63;1.10;;;;;;;;;;5024730;28;20452;-81
2023/12/10 13:17:40;;;;;;;3.70;1.07;;;;;;;;;;5024274;28;20492;-80
2023/12/10 13:20:18;;;;;;;3.23;0.90;;;;;;;;;;5026342;28;20519;-79
2023/12/10 13:22:47;;;;;;;3.30;1.00;;;;;;;;;;5023146;28;20538;-80
2023/12/10 13:25:15;;;;;;;3.10;1.43;;;;;;;;;;5027709;28;20461;-79
2023/12/10 13:27:43;;;;;;;4.40;1.20;;;;;;;;;;5046347;28;20562;-79
2023/12/10 13:30:17;;;;;;;6.90;1.97;;;;;;;;;;5047226;28;20616;-78
2023/12/10 13:32:45;;;;;;;2.30;0.93;;;;;;;;;;5043229;28;20461;-78
2023/12/10 13:35:13;;;;;;;3.00;1.20;;;;;;;;;;5042378;28;20462;-77
2023/12/10 13:37:40;;;;;;;3.50;1.23;;;;;;;;;;5042271;28;20744;-78
2023/12/10 13:40:15;;;;;;;4.97;1.00;;;;;;;;;;5046474;28;20484;-80
2023/12/10 13:42:44;;;;;;;4.63;1.67;;;;;;;;;;5049207;28;20503;-78
2023/12/10 13:45:14;;;;;;;2.83;1.07;;;;;;;;;;5049075;28;20552;-78
2023/12/10 13:47:42;;;;;;;2.00;0.80;;;;;;;;;;5049987;28;20456;-78
2023/12/10 13:50:10;;;;;;;1.90;0.80;;;;;;;;;;5049530;28;20517;-78
2023/12/10 13:52:38;;;;;;;2.80;0.90;;;;;;;;;;5049746;28;20519;-78
2023/12/10 13:55:13;;;;;;;1.90;0.70;;;;;;;;;;5049484;28;20533;-78
2023/12/10 13:57:43;;;;;;;5.40;1.97;;;;;;;;;;5047582;28;20485;-79
2023/12/10 14:00:15;;;;;;;3.80;1.77;;;;;;;;;;5028156;28;20493;-80
2023/12/10 14:02:46;;;;;;;3.53;1.07;;;;;;;;;;5006152;28;20485;-79
2023/12/10 14:05:15;;;;;;;2.63;1.03;;;;;;;;;;5007038;28;20457;-79
2023/12/10 14:07:46;;;;;;;2.83;0.67;;;;;;;;;;5004249;28;20486;-79
2023/12/10 14:10:18;;;;;;;2.43;1.00;;;;;;;;;;5004757;28;20466;-79
2023/12/10 14:12:47;;;;;;;2.20;0.87;;;;;;;;;;5001767;28;20481;-80
2023/12/10 14:15:15;;;;;;;1.90;0.60;;;;;;;;;;5002516;28;20573;-80
2023/12/10 14:17:43;;;;;;;2.93;0.90;;;;;;;;;;5003867;28;20470;-78
2023/12/10 14:20:14;;;;;;;2.67;0.70;;;;;;;;;;5002159;28;20447;-78
2023/12/10 14:22:42;;;;;;;2.20;0.80;;;;;;;;;;5001782;28;20513;-80
2023/12/10 14:25:10;;;;;;;2.40;0.80;;;;;;;;;;5001953;28;20505;-81
2023/12/10 14:27:38;;;;;;;6.33;1.20;;;;;;;;;;5002382;28;20528;-79
2023/12/10 14:30:10;;;;;;;3.20;1.20;;;;;;;;;;5003185;28;20493;-80
2023/12/10 14:32:38;;;;;;;2.10;0.77;;;;;;;;;;5001128;28;20480;-80
2023/12/10 14:35:06;;;;;;;4.33;1.20;;;;;;;;;;5003763;28;20481;-80
2023/12/10 14:37:33;;;;;;;2.80;1.23;;;;;;;;;;5004971;28;20466;-79
2023/12/10 14:40:10;;;;;;;3.17;0.97;;;;;;;;;;5009050;28;20493;-80
2023/12/10 14:42:38;;;;;;;4.23;1.20;;;;;;;;;;5008246;28;20520;-80
2023/12/10 14:45:11;;;;;;;3.83;1.20;;;;;;;;;;5011383;28;20457;-80
2023/12/10 14:47:38;;;;;;;4.23;1.93;;;;;;;;;;5004811;28;20464;-79
2023/12/10 14:50:10;;;;;;;6.03;1.67;;;;;;;;;;5004651;28;20764;-80
2023/12/10 14:52:38;;;;;;;6.83;1.87;;;;;;;;;;5004751;28;20486;-78